createdAt,value
2017-09-27T00:00:45.778Z,13.2
2017-09-27T00:01:54.665Z,13.25
2017-09-27T00:03:03.531Z,13.24
2017-09-27T00:04:12.072Z,13.21
2017-09-27T00:05:20.937Z,13.25
2017-09-27T00:06:29.802Z,13.24
2017-09-27T00:07:38.350Z,13.28
2017-09-27T00:08:47.541Z,13.21
2017-09-27T00:09:56.737Z,13.16
2017-09-27T00:11:05.923Z,13.2
2017-09-27T00:12:14.788Z,13.21
2017-09-27T00:13:23.655Z,13.19
2017-09-27T00:14:32.526Z,13.27
2017-09-27T00:15:41.066Z,13.16
2017-09-27T00:16:49.932Z,13.25
2017-09-27T00:17:58.794Z,13.14
2017-09-27T00:19:07.659Z,13.25
2017-09-27T00:20:16.204Z,13.28
2017-09-27T00:21:24.745Z,13.2
2017-09-27T00:22:33.934Z,13.29
2017-09-27T00:23:42.477Z,13.16
2017-09-27T00:24:51.022Z,13.25
2017-09-27T00:25:59.919Z,13.27
2017-09-27T00:27:09.075Z,13.19
2017-09-27T00:28:17.943Z,13.25
2017-09-27T00:29:26.500Z,13.14
2017-09-27T00:30:35.045Z,13.19
2017-09-27T00:31:43.912Z,13.2
2017-09-27T00:32:52.459Z,13.14
2017-09-27T00:34:01.324Z,13.17
2017-09-27T00:35:10.187Z,13.14
2017-09-27T00:36:19.374Z,13.11
2017-09-27T00:37:27.922Z,13.14
2017-09-27T00:38:36.793Z,13.03
2017-09-27T00:39:45.338Z,13.11
2017-09-27T00:40:53.886Z,12.99
2017-09-27T00:42:03.071Z,13.07
2017-09-27T00:43:12.262Z,13.01
2017-09-27T00:44:20.804Z,13.07
2017-09-27T00:45:29.346Z,13.1
2017-09-27T00:46:37.892Z,13.07
2017-09-27T00:47:46.771Z,12.99
2017-09-27T00:48:55.636Z,12.98
2017-09-27T00:50:04.183Z,12.99
2017-09-27T00:51:12.727Z,12.94
2017-09-27T00:52:21.594Z,12.98
2017-09-27T00:53:30.462Z,12.96
2017-09-27T00:54:39.005Z,12.95
2017-09-27T00:55:47.872Z,12.92
2017-09-27T00:56:57.064Z,12.86
2017-09-27T00:58:06.576Z,12.88
2017-09-27T00:59:15.766Z,12.84
2017-09-27T01:00:24.630Z,12.8
2017-09-27T01:01:33.500Z,12.76
2017-09-27T01:02:42.370Z,12.77
2017-09-27T01:03:51.234Z,12.8
2017-09-27T01:05:00.422Z,12.78
2017-09-27T01:06:08.968Z,12.77
2017-09-27T01:07:17.511Z,12.86
2017-09-27T01:08:26.056Z,12.8
2017-09-27T01:09:34.597Z,12.81
2017-09-27T01:10:43.787Z,12.83
2017-09-27T01:11:52.654Z,12.88
2017-09-27T01:13:01.847Z,12.78
2017-09-27T01:14:11.034Z,12.8
2017-09-27T01:15:19.608Z,12.78
2017-09-27T01:16:28.151Z,12.76
2017-09-27T01:17:36.692Z,12.73
2017-09-27T01:18:45.884Z,12.76
2017-09-27T01:19:54.426Z,12.71
2017-09-27T01:21:03.614Z,12.69
2017-09-27T01:22:12.809Z,12.78
2017-09-27T01:23:21.349Z,12.8
2017-09-27T01:24:30.214Z,12.81
2017-09-27T01:25:39.078Z,12.7
2017-09-27T01:26:47.942Z,12.86
2017-09-27T01:27:56.809Z,12.74
2017-09-27T01:29:05.355Z,12.74
2017-09-27T01:30:14.219Z,12.7
2017-09-27T01:31:23.085Z,12.76
2017-09-27T01:32:31.949Z,12.73
2017-09-27T01:33:40.817Z,12.66
2017-09-27T01:34:49.357Z,12.69
2017-09-27T01:35:57.902Z,12.7
2017-09-27T01:37:06.447Z,12.69
2017-09-27T01:38:15.309Z,12.73
2017-09-27T01:39:23.852Z,12.76
2017-09-27T01:40:32.716Z,12.74
2017-09-27T01:41:41.261Z,12.66
2017-09-27T01:42:49.804Z,12.69
2017-09-27T01:43:59.570Z,12.63
2017-09-27T01:45:08.762Z,12.56
2017-09-27T01:46:17.540Z,12.59
2017-09-27T01:47:26.551Z,12.52
2017-09-27T01:48:35.832Z,12.66
2017-09-27T01:49:44.685Z,12.58
2017-09-27T01:50:53.230Z,12.53
2017-09-27T01:52:01.773Z,12.51
2017-09-27T01:53:10.315Z,12.51
2017-09-27T01:54:19.505Z,12.55
2017-09-27T01:55:28.049Z,12.53
2017-09-27T01:56:36.591Z,12.52
2017-09-27T01:57:45.454Z,12.56
2017-09-27T01:58:53.993Z,12.53
2017-09-27T02:00:02.859Z,12.53
2017-09-27T02:01:11.405Z,12.41
2017-09-27T02:02:20.270Z,12.48
2017-09-27T02:03:28.813Z,12.37
2017-09-27T02:04:37.361Z,12.47
2017-09-27T02:05:45.905Z,12.44
2017-09-27T02:06:54.445Z,12.43
2017-09-27T02:08:03.389Z,12.44
2017-09-27T02:09:11.931Z,12.44
2017-09-27T02:10:20.801Z,12.38
2017-09-27T02:11:29.343Z,12.44
2017-09-27T02:12:38.204Z,12.44
2017-09-27T02:13:47.067Z,12.44
2017-09-27T02:14:55.609Z,12.44
2017-09-27T02:16:04.797Z,12.41
2017-09-27T02:17:13.335Z,12.43
2017-09-27T02:18:21.880Z,12.38
2017-09-27T02:19:30.421Z,12.26
2017-09-27T02:20:39.284Z,12.28
2017-09-27T02:21:47.825Z,12.28
2017-09-27T02:22:56.368Z,12.33
2017-09-27T02:24:04.912Z,12.31
2017-09-27T02:25:13.783Z,12.26
2017-09-27T02:26:22.851Z,12.25
2017-09-27T02:27:31.718Z,12.28
2017-09-27T02:28:41.285Z,12.31
2017-09-27T02:29:49.834Z,12.26
2017-09-27T02:30:58.710Z,12.33
2017-09-27T02:32:07.258Z,12.29
2017-09-27T02:33:15.796Z,12.28
2017-09-27T02:34:24.340Z,12.22
2017-09-27T02:35:32.879Z,12.28
2017-09-27T02:36:41.745Z,12.23
2017-09-27T02:37:50.949Z,12.26
2017-09-27T02:38:59.494Z,12.22
2017-09-27T02:40:09.001Z,12.18
2017-09-27T02:41:18.190Z,12.16
2017-09-27T02:42:26.763Z,12.13
2017-09-27T02:43:35.266Z,12.1
2017-09-27T02:44:44.452Z,12.13
2017-09-27T02:45:53.651Z,12.13
2017-09-27T02:47:02.515Z,12.13
2017-09-27T02:48:11.056Z,12.16
2017-09-27T02:49:19.601Z,12.15
2017-09-27T02:50:28.790Z,12.11
2017-09-27T02:51:37.331Z,12.1
2017-09-27T02:52:46.198Z,12.19
2017-09-27T02:53:55.067Z,12.15
2017-09-27T02:55:03.613Z,12.11
2017-09-27T02:56:12.478Z,12.23
2017-09-27T02:57:21.340Z,12.23
2017-09-27T02:58:30.204Z,12.19
2017-09-27T02:59:38.747Z,12.19
2017-09-27T03:00:47.613Z,12.18
2017-09-27T03:01:56.478Z,12.15
2017-09-27T03:03:05.347Z,12.23
2017-09-27T03:04:13.891Z,12.16
2017-09-27T03:05:22.436Z,12.19
2017-09-27T03:06:30.980Z,12.08
2017-09-27T03:07:39.847Z,12.16
2017-09-27T03:08:48.385Z,12.16
2017-09-27T03:09:57.251Z,12.13
2017-09-27T03:11:05.793Z,12.05
2017-09-27T03:12:14.338Z,12.05
2017-09-27T03:13:23.532Z,12.16
2017-09-27T03:14:32.077Z,12.03
2017-09-27T03:15:40.946Z,12.13
2017-09-27T03:16:49.813Z,12.05
2017-09-27T03:17:58.357Z,12.07
2017-09-27T03:19:06.900Z,12.04
2017-09-27T03:20:15.806Z,11.97
2017-09-27T03:21:24.994Z,12.03
2017-09-27T03:22:33.539Z,12.03
2017-09-27T03:23:42.402Z,12.04
2017-09-27T03:24:50.945Z,11.95
2017-09-27T03:25:59.489Z,12.04
2017-09-27T03:27:08.354Z,12.01
2017-09-27T03:28:16.892Z,12.03
2017-09-27T03:29:25.759Z,12.05
2017-09-27T03:30:34.300Z,12
2017-09-27T03:31:42.842Z,11.97
2017-09-27T03:32:51.381Z,12.03
2017-09-27T03:34:00.564Z,12
2017-09-27T03:35:09.110Z,11.89
2017-09-27T03:36:17.974Z,11.95
2017-09-27T03:37:27.162Z,11.97
2017-09-27T03:38:35.704Z,12.04
2017-09-27T03:39:44.569Z,11.98
2017-09-27T03:40:53.110Z,12
2017-09-27T03:42:02.299Z,12.04
2017-09-27T03:43:10.844Z,12.03
2017-09-27T03:44:20.042Z,12
2017-09-27T03:45:28.905Z,11.98
2017-09-27T03:46:37.449Z,12.04
2017-09-27T03:47:46.314Z,11.98
2017-09-27T03:48:55.179Z,12.05
2017-09-27T03:50:03.725Z,11.98
2017-09-27T03:51:12.600Z,12.03
2017-09-27T03:52:21.792Z,12.03
2017-09-27T03:53:30.654Z,12.01
2017-09-27T03:54:39.193Z,11.97
2017-09-27T03:55:47.738Z,12.07
2017-09-27T03:56:56.924Z,12.07
2017-09-27T03:58:06.109Z,12.07
2017-09-27T03:59:14.650Z,12.07
2017-09-27T04:00:23.847Z,12
2017-09-27T04:01:32.711Z,12.15
2017-09-27T04:02:41.572Z,12.16
2017-09-27T04:03:50.114Z,12.04
2017-09-27T04:04:58.657Z,12.11
2017-09-27T04:06:07.521Z,12.18
2017-09-27T04:07:16.061Z,12.16
2017-09-27T04:08:24.929Z,12.08
2017-09-27T04:09:33.467Z,12.13
2017-09-27T04:10:42.008Z,12.15
2017-09-27T04:11:50.553Z,12.2
2017-09-27T04:12:59.098Z,12.15
2017-09-27T04:14:07.639Z,12.15
2017-09-27T04:15:16.512Z,12.13
2017-09-27T04:16:25.059Z,12.22
2017-09-27T04:17:33.927Z,12.22
2017-09-27T04:18:43.115Z,12.28
2017-09-27T04:19:51.981Z,12.2
2017-09-27T04:21:00.524Z,12.28
2017-09-27T04:22:09.065Z,12.25
2017-09-27T04:23:17.608Z,12.33
2017-09-27T04:24:26.146Z,12.28
2017-09-27T04:25:35.022Z,12.29
2017-09-27T04:26:43.560Z,12.36
2017-09-27T04:27:52.625Z,12.36
2017-09-27T04:29:01.489Z,12.31
2017-09-27T04:30:10.354Z,12.34
2017-09-27T04:31:19.545Z,12.33
2017-09-27T04:32:28.090Z,12.28
2017-09-27T04:33:36.633Z,12.34
2017-09-27T04:34:45.496Z,12.41
2017-09-27T04:35:54.696Z,12.4
2017-09-27T04:37:03.565Z,12.4
2017-09-27T04:38:12.432Z,12.29
2017-09-27T04:39:20.974Z,12.37
2017-09-27T04:40:29.836Z,12.37
2017-09-27T04:41:38.705Z,12.4
2017-09-27T04:42:47.572Z,12.4
2017-09-27T04:43:56.465Z,12.4
2017-09-27T04:45:04.974Z,12.38
2017-09-27T04:46:13.834Z,12.52
2017-09-27T04:47:22.699Z,12.41
2017-09-27T04:48:31.568Z,12.53
2017-09-27T04:49:40.752Z,12.53
2017-09-27T04:50:50.259Z,12.52
2017-09-27T04:51:59.446Z,12.56
2017-09-27T04:53:08.315Z,12.56
2017-09-27T04:54:16.859Z,12.58
2017-09-27T04:55:25.401Z,12.52
2017-09-27T04:56:34.268Z,12.53
2017-09-27T04:57:43.130Z,12.56
2017-09-27T04:58:51.674Z,12.56
2017-09-27T05:00:00.219Z,12.52
2017-09-27T05:01:09.086Z,12.53
2017-09-27T05:02:18.272Z,12.53
2017-09-27T05:03:26.815Z,12.47
2017-09-27T05:04:36.003Z,12.53
2017-09-27T05:05:44.988Z,12.58
2017-09-27T05:06:53.722Z,12.58
2017-09-27T05:08:02.585Z,12.53
2017-09-27T05:09:11.458Z,12.51
2017-09-27T05:10:20.001Z,12.52
2017-09-27T05:11:29.185Z,12.55
2017-09-27T05:12:37.727Z,12.59
2017-09-27T05:13:46.590Z,12.61
2017-09-27T05:14:55.134Z,12.59
2017-09-27T05:16:03.676Z,12.65
2017-09-27T05:17:12.548Z,12.55
2017-09-27T05:18:21.413Z,12.65
2017-09-27T05:19:30.277Z,12.65
2017-09-27T05:20:38.819Z,12.7
2017-09-27T05:21:47.683Z,12.74
2017-09-27T05:22:56.223Z,12.65
2017-09-27T05:24:04.766Z,12.66
2017-09-27T05:25:13.955Z,12.73
2017-09-27T05:26:22.499Z,12.63
2017-09-27T05:27:31.366Z,12.66
2017-09-27T05:28:40.554Z,12.69
2017-09-27T05:29:49.096Z,12.65
2017-09-27T05:30:57.639Z,12.69
2017-09-27T05:32:06.179Z,12.78
2017-09-27T05:33:15.047Z,12.71
2017-09-27T05:34:23.587Z,12.77
2017-09-27T05:35:32.136Z,12.74
2017-09-27T05:36:41.004Z,12.8
2017-09-27T05:37:49.870Z,12.8
2017-09-27T05:38:59.060Z,12.73
2017-09-27T05:40:07.601Z,12.8
2017-09-27T05:41:16.469Z,12.81
2017-09-27T05:42:25.335Z,12.83
2017-09-27T05:43:34.522Z,12.84
2017-09-27T05:44:43.390Z,12.86
2017-09-27T05:45:51.933Z,12.86
2017-09-27T05:47:00.479Z,12.86
2017-09-27T05:48:09.344Z,12.84
2017-09-27T05:49:17.885Z,12.83
2017-09-27T05:50:26.427Z,12.91
2017-09-27T05:51:34.972Z,12.83
2017-09-27T05:52:43.512Z,12.84
2017-09-27T05:53:52.373Z,12.88
2017-09-27T05:55:00.921Z,12.81
2017-09-27T05:56:10.287Z,12.89
2017-09-27T05:57:19.479Z,12.92
2017-09-27T05:58:28.667Z,12.94
2017-09-27T05:59:37.536Z,12.81
2017-09-27T06:00:46.728Z,12.91
2017-09-27T06:01:55.599Z,12.98
2017-09-27T06:03:04.143Z,12.98
2017-09-27T06:04:13.333Z,12.96
2017-09-27T06:05:22.206Z,12.95
2017-09-27T06:06:31.397Z,12.98
2017-09-27T06:07:40.261Z,12.98
2017-09-27T06:08:48.801Z,12.94
2017-09-27T06:09:57.342Z,12.94
2017-09-27T06:11:05.960Z,12.98
2017-09-27T06:12:14.883Z,12.94
2017-09-27T06:13:23.494Z,12.99
2017-09-27T06:14:32.686Z,13.02
2017-09-27T06:15:41.232Z,13.07
2017-09-27T06:16:50.099Z,12.99
2017-09-27T06:17:59.027Z,13.1
2017-09-27T06:19:07.589Z,13.06
2017-09-27T06:20:16.727Z,13.09
2017-09-27T06:21:25.269Z,13.03
2017-09-27T06:22:34.292Z,13.13
2017-09-27T06:23:42.882Z,13.03
2017-09-27T06:24:51.452Z,13.17
2017-09-27T06:26:00.639Z,13.21
2017-09-27T06:27:09.512Z,13.19
2017-09-27T06:28:18.703Z,13.2
2017-09-27T06:29:27.243Z,13.25
2017-09-27T06:30:36.110Z,13.21
2017-09-27T06:31:45.003Z,13.21
2017-09-27T06:32:53.648Z,13.17
2017-09-27T06:34:02.239Z,13.19
2017-09-27T06:35:11.452Z,13.28
2017-09-27T06:36:20.322Z,13.35
2017-09-27T06:37:28.863Z,13.32
2017-09-27T06:38:37.431Z,13.37
2017-09-27T06:39:45.952Z,13.39
2017-09-27T06:40:54.951Z,13.44
2017-09-27T06:42:03.493Z,13.47
2017-09-27T06:43:12.041Z,13.45
2017-09-27T06:44:21.152Z,13.58
2017-09-27T06:45:29.819Z,13.62
2017-09-27T06:46:38.530Z,13.58
2017-09-27T06:47:47.410Z,13.72
2017-09-27T06:48:55.958Z,13.78
2017-09-27T06:50:04.563Z,13.75
2017-09-27T06:51:13.554Z,13.76
2017-09-27T06:52:22.119Z,13.87
2017-09-27T06:53:30.679Z,13.93
2017-09-27T06:54:39.222Z,13.95
2017-09-27T06:55:48.094Z,13.99
2017-09-27T06:56:56.965Z,13.97
2017-09-27T06:58:05.872Z,14.02
2017-09-27T06:59:15.466Z,13.99
2017-09-27T07:00:24.897Z,14.09
2017-09-27T07:01:33.839Z,14.09
2017-09-27T07:02:42.882Z,14.03
2017-09-27T07:03:51.745Z,14.03
2017-09-27T07:05:00.613Z,14.05
2017-09-27T07:06:10.128Z,14.03
2017-09-27T07:07:18.995Z,14.06
2017-09-27T07:08:27.872Z,14.09
2017-09-27T07:09:36.416Z,14.05
2017-09-27T07:10:45.641Z,14.05
2017-09-27T07:11:54.528Z,13.97
2017-09-27T07:13:03.395Z,14.03
2017-09-27T07:14:12.398Z,13.95
2017-09-27T07:15:20.915Z,14.05
2017-09-27T07:16:29.467Z,14.06
2017-09-27T07:17:38.025Z,13.97
2017-09-27T07:18:46.585Z,13.95
2017-09-27T07:19:55.467Z,13.99
2017-09-27T07:21:04.335Z,14.03
2017-09-27T07:22:12.884Z,13.94
2017-09-27T07:23:21.427Z,14.02
2017-09-27T07:24:29.973Z,14.15
2017-09-27T07:25:38.841Z,14.15
2017-09-27T07:26:47.387Z,14.21
2017-09-27T07:27:55.930Z,14.21
2017-09-27T07:29:05.126Z,14.26
2017-09-27T07:30:14.062Z,14.38
2017-09-27T07:31:22.936Z,14.34
2017-09-27T07:32:31.475Z,14.33
2017-09-27T07:33:40.346Z,14.42
2017-09-27T07:34:48.887Z,14.49
2017-09-27T07:35:57.763Z,14.51
2017-09-27T07:37:06.631Z,14.57
2017-09-27T07:38:15.176Z,14.64
2017-09-27T07:39:23.738Z,14.69
2017-09-27T07:40:32.601Z,14.69
2017-09-27T07:41:41.468Z,14.71
2017-09-27T07:42:50.062Z,14.74
2017-09-27T07:43:58.603Z,14.75
2017-09-27T07:45:07.482Z,14.82
2017-09-27T07:46:16.675Z,14.8
2017-09-27T07:47:25.543Z,14.94
2017-09-27T07:48:34.406Z,14.74
2017-09-27T07:49:44.240Z,14.75
2017-09-27T07:50:52.784Z,14.77
2017-09-27T07:52:01.969Z,14.77
2017-09-27T07:53:11.158Z,14.79
2017-09-27T07:54:19.702Z,14.8
2017-09-27T07:55:28.569Z,14.75
2017-09-27T07:56:37.756Z,14.66
2017-09-27T07:57:46.301Z,14.7
2017-09-27T07:58:55.166Z,14.8
2017-09-27T08:00:03.712Z,14.75
2017-09-27T08:01:12.632Z,14.83
2017-09-27T08:02:21.185Z,14.87
2017-09-27T08:03:30.486Z,14.9
2017-09-27T08:04:39.185Z,14.93
2017-09-27T08:05:47.731Z,14.95
2017-09-27T08:06:56.598Z,14.97
2017-09-27T08:08:05.630Z,15.01
2017-09-27T08:09:15.136Z,15
2017-09-27T08:10:23.717Z,15
2017-09-27T08:11:32.585Z,15.07
2017-09-27T08:12:41.127Z,15.1
2017-09-27T08:13:50.000Z,15.15
2017-09-27T08:14:58.548Z,15.05
2017-09-27T08:16:07.977Z,15.16
2017-09-27T08:17:16.528Z,15.18
2017-09-27T08:18:25.078Z,15.22
2017-09-27T08:19:33.954Z,15.27
2017-09-27T08:20:42.824Z,15.31
2017-09-27T08:21:52.019Z,15.41
2017-09-27T08:23:00.566Z,15.44
2017-09-27T08:24:09.109Z,15.49
2017-09-27T08:25:17.656Z,15.51
2017-09-27T08:26:26.204Z,15.52
2017-09-27T08:27:35.436Z,15.58
2017-09-27T08:28:44.649Z,15.6
2017-09-27T08:29:53.206Z,15.68
2017-09-27T08:31:01.750Z,15.74
2017-09-27T08:32:10.298Z,15.83
2017-09-27T08:33:18.837Z,15.73
2017-09-27T08:34:28.033Z,15.86
2017-09-27T08:35:37.056Z,15.92
2017-09-27T08:36:46.560Z,15.91
2017-09-27T08:37:55.755Z,15.99
2017-09-27T08:39:04.968Z,15.96
2017-09-27T08:40:13.907Z,16.04
2017-09-27T08:41:22.777Z,16.14
2017-09-27T08:42:31.330Z,16.13
2017-09-27T08:43:40.523Z,16.16
2017-09-27T08:44:49.389Z,16.16
2017-09-27T08:45:57.934Z,16.22
2017-09-27T08:47:07.125Z,16.32
2017-09-27T08:48:15.668Z,16.26
2017-09-27T08:49:24.541Z,16.3
2017-09-27T08:50:33.085Z,16.3
2017-09-27T08:51:41.934Z,16.29
2017-09-27T08:52:50.480Z,16.44
2017-09-27T08:53:59.103Z,16.48
2017-09-27T08:55:08.032Z,16.48
2017-09-27T08:56:16.577Z,16.47
2017-09-27T08:57:25.450Z,16.52
2017-09-27T08:58:33.997Z,16.55
2017-09-27T08:59:42.871Z,16.63
2017-09-27T09:00:51.744Z,16.65
2017-09-27T09:02:00.289Z,16.7
2017-09-27T09:03:09.492Z,16.77
2017-09-27T09:04:18.395Z,16.81
2017-09-27T09:05:26.944Z,16.8
2017-09-27T09:06:35.491Z,16.88
2017-09-27T09:07:44.361Z,16.85
2017-09-27T09:08:53.234Z,16.95
2017-09-27T09:10:01.983Z,17.05
2017-09-27T09:11:10.534Z,16.94
2017-09-27T09:12:19.086Z,16.97
2017-09-27T09:13:27.957Z,17.03
2017-09-27T09:14:36.506Z,17.06
2017-09-27T09:15:45.698Z,17.17
2017-09-27T09:16:54.246Z,17.21
2017-09-27T09:18:03.118Z,17.21
2017-09-27T09:19:11.988Z,17.25
2017-09-27T09:20:20.532Z,17.27
2017-09-27T09:21:29.400Z,17.3
2017-09-27T09:22:38.269Z,17.4
2017-09-27T09:23:47.471Z,17.38
2017-09-27T09:24:56.341Z,17.45
2017-09-27T09:26:04.902Z,17.5
2017-09-27T09:27:13.771Z,17.46
2017-09-27T09:28:22.645Z,17.58
2017-09-27T09:29:31.509Z,17.6
2017-09-27T09:30:40.390Z,17.55
2017-09-27T09:31:49.261Z,17.74
2017-09-27T09:32:57.809Z,17.68
2017-09-27T09:34:06.674Z,17.63
2017-09-27T09:35:15.871Z,17.74
2017-09-27T09:36:24.744Z,17.79
2017-09-27T09:37:33.991Z,17.83
2017-09-27T09:38:43.258Z,17.87
2017-09-27T09:39:52.126Z,17.87
2017-09-27T09:41:00.669Z,17.9
2017-09-27T09:42:09.220Z,18.06
2017-09-27T09:43:18.734Z,18.06
2017-09-27T09:44:27.606Z,18.02
2017-09-27T09:45:36.473Z,18.1
2017-09-27T09:46:45.022Z,18.02
2017-09-27T09:47:54.219Z,18.17
2017-09-27T09:49:03.092Z,18.17
2017-09-27T09:50:11.968Z,18.13
2017-09-27T09:51:21.163Z,18.21
2017-09-27T09:52:29.712Z,18.26
2017-09-27T09:53:38.259Z,18.17
2017-09-27T09:54:47.128Z,18.27
2017-09-27T09:55:56.319Z,18.32
2017-09-27T09:57:04.866Z,18.36
2017-09-27T09:58:13.413Z,18.29
2017-09-27T09:59:21.967Z,18.39
2017-09-27T10:00:31.166Z,18.39
2017-09-27T10:01:40.040Z,18.45
2017-09-27T10:02:48.719Z,18.54
2017-09-27T10:03:57.629Z,18.51
2017-09-27T10:05:06.505Z,18.54
2017-09-27T10:06:15.375Z,18.53
2017-09-27T10:07:24.250Z,18.54
2017-09-27T10:08:33.125Z,18.65
2017-09-27T10:09:42.314Z,18.66
2017-09-27T10:10:51.506Z,18.74
2017-09-27T10:12:00.056Z,18.74
2017-09-27T10:13:08.927Z,18.68
2017-09-27T10:14:17.476Z,18.76
2017-09-27T10:15:26.347Z,18.71
2017-09-27T10:16:34.893Z,18.79
2017-09-27T10:17:43.762Z,18.82
2017-09-27T10:18:52.309Z,18.81
2017-09-27T10:20:01.194Z,18.84
2017-09-27T10:21:10.388Z,18.78
2017-09-27T10:22:19.259Z,18.94
2017-09-27T10:23:28.131Z,18.93
2017-09-27T10:24:37.325Z,18.91
2017-09-27T10:25:45.873Z,19.02
2017-09-27T10:26:54.420Z,19.05
2017-09-27T10:28:03.491Z,19.09
2017-09-27T10:29:12.360Z,19.05
2017-09-27T10:30:21.565Z,19.07
2017-09-27T10:31:30.109Z,19.07
2017-09-27T10:32:38.982Z,19.16
2017-09-27T10:33:47.578Z,19.12
2017-09-27T10:34:56.124Z,19.17
2017-09-27T10:36:04.674Z,19.13
2017-09-27T10:37:13.225Z,19.16
2017-09-27T10:38:21.819Z,19.2
2017-09-27T10:39:30.367Z,19.28
2017-09-27T10:40:38.918Z,19.34
2017-09-27T10:41:47.468Z,19.25
2017-09-27T10:42:56.339Z,19.27
2017-09-27T10:44:05.213Z,19.35
2017-09-27T10:45:14.732Z,19.42
2017-09-27T10:46:23.282Z,19.45
2017-09-27T10:47:32.480Z,19.45
2017-09-27T10:48:41.028Z,19.42
2017-09-27T10:49:49.576Z,19.53
2017-09-27T10:50:58.452Z,19.53
2017-09-27T10:52:07.320Z,19.55
2017-09-27T10:53:15.869Z,19.53
2017-09-27T10:54:24.738Z,19.6
2017-09-27T10:55:33.612Z,19.57
2017-09-27T10:56:42.482Z,19.65
2017-09-27T10:57:51.031Z,19.63
2017-09-27T10:58:59.584Z,19.57
2017-09-27T11:00:08.780Z,19.56
2017-09-27T11:01:17.655Z,19.75
2017-09-27T11:02:26.544Z,19.74
2017-09-27T11:03:36.099Z,19.78
2017-09-27T11:04:44.972Z,19.8
2017-09-27T11:05:53.868Z,19.78
2017-09-27T11:07:03.431Z,19.79
2017-09-27T11:08:12.291Z,19.74
2017-09-27T11:09:21.497Z,19.87
2017-09-27T11:10:30.729Z,19.86
2017-09-27T11:11:39.277Z,19.87
2017-09-27T11:12:48.503Z,19.92
2017-09-27T11:13:57.046Z,19.95
2017-09-27T11:15:05.600Z,20.01
2017-09-27T11:16:14.792Z,20.04
2017-09-27T11:17:23.337Z,20.08
2017-09-27T11:18:31.933Z,20
2017-09-27T11:19:40.483Z,20.15
2017-09-27T11:20:49.032Z,20.15
2017-09-27T11:21:57.900Z,20.12
2017-09-27T11:23:07.418Z,20.11
2017-09-27T11:24:16.298Z,20.15
2017-09-27T11:25:24.849Z,20.18
2017-09-27T11:26:33.715Z,20.26
2017-09-27T11:27:42.263Z,20.4
2017-09-27T11:28:51.735Z,20.44
2017-09-27T11:30:00.283Z,20.53
2017-09-27T11:31:09.156Z,20.61
2017-09-27T11:32:18.358Z,20.66
2017-09-27T11:33:27.228Z,20.63
2017-09-27T11:34:35.781Z,20.64
2017-09-27T11:35:44.330Z,20.68
2017-09-27T11:36:52.878Z,20.71
2017-09-27T11:38:01.427Z,20.68
2017-09-27T11:39:10.295Z,20.68
2017-09-27T11:40:19.164Z,20.68
2017-09-27T11:41:27.717Z,20.79
2017-09-27T11:42:36.591Z,20.76
2017-09-27T11:43:45.138Z,20.71
2017-09-27T11:44:54.004Z,20.83
2017-09-27T11:46:02.555Z,20.86
2017-09-27T11:47:11.426Z,20.93
2017-09-27T11:48:20.296Z,20.97
2017-09-27T11:49:29.165Z,21.11
2017-09-27T11:50:38.042Z,21.13
2017-09-27T11:51:46.934Z,21.3
2017-09-27T11:52:55.811Z,21.18
2017-09-27T11:54:04.697Z,21.27
2017-09-27T11:55:13.568Z,21.28
2017-09-27T11:56:22.765Z,21.23
2017-09-27T11:57:31.311Z,21.31
2017-09-27T11:58:39.859Z,21.34
2017-09-27T11:59:48.440Z,21.33
2017-09-27T12:00:56.954Z,21.4
2017-09-27T12:02:05.826Z,21.43
2017-09-27T12:03:14.700Z,21.45
2017-09-27T12:04:23.383Z,21.33
2017-09-27T12:05:32.253Z,21.45
2017-09-27T12:06:40.805Z,21.46
2017-09-27T12:07:49.357Z,21.45
2017-09-27T12:08:57.904Z,21.51
2017-09-27T12:10:06.456Z,21.41
2017-09-27T12:11:15.003Z,21.37
2017-09-27T12:12:23.876Z,21.34
2017-09-27T12:13:32.747Z,21.25
2017-09-27T12:14:41.623Z,21.23
2017-09-27T12:15:50.495Z,21.25
2017-09-27T12:16:59.043Z,21.27
2017-09-27T12:18:07.912Z,21.28
2017-09-27T12:19:16.466Z,21.23
2017-09-27T12:20:25.341Z,21.16
2017-09-27T12:21:33.893Z,21.13
2017-09-27T12:22:42.445Z,21.15
2017-09-27T12:23:51.648Z,21.13
2017-09-27T12:25:00.520Z,21.18
2017-09-27T12:26:09.073Z,21.21
2017-09-27T12:27:17.942Z,21.19
2017-09-27T12:28:26.491Z,21.16
2017-09-27T12:29:35.367Z,21.09
2017-09-27T12:30:43.932Z,21.15
2017-09-27T12:31:53.125Z,21.23
2017-09-27T12:33:01.999Z,21.21
2017-09-27T12:34:10.871Z,21.23
2017-09-27T12:35:19.425Z,21.27
2017-09-27T12:36:28.280Z,21.33
2017-09-27T12:37:38.140Z,21.33
2017-09-27T12:38:47.018Z,21.36
2017-09-27T12:39:55.903Z,21.33
2017-09-27T12:41:04.778Z,21.3
2017-09-27T12:42:13.978Z,21.36
2017-09-27T12:43:22.529Z,21.37
2017-09-27T12:44:31.402Z,21.33
2017-09-27T12:45:40.277Z,21.34
2017-09-27T12:46:48.826Z,21.3
2017-09-27T12:47:57.699Z,21.3
2017-09-27T12:49:06.575Z,21.3
2017-09-27T12:50:15.124Z,21.31
2017-09-27T12:51:23.675Z,21.33
2017-09-27T12:52:32.542Z,21.3
2017-09-27T12:53:41.415Z,21.28
2017-09-27T12:54:50.287Z,21.27
2017-09-27T12:55:59.483Z,21.27
2017-09-27T12:57:08.681Z,21.27
2017-09-27T12:58:17.555Z,21.23
2017-09-27T12:59:26.102Z,21.28
2017-09-27T13:00:34.652Z,21.31
2017-09-27T13:01:43.555Z,21.25
2017-09-27T13:02:52.747Z,21.21
2017-09-27T13:04:01.298Z,21.27
2017-09-27T13:05:10.173Z,21.22
2017-09-27T13:06:18.723Z,21.21
2017-09-27T13:07:27.272Z,21.22
2017-09-27T13:08:36.471Z,21.21
2017-09-27T13:09:45.215Z,21.22
2017-09-27T13:10:54.231Z,21.27
2017-09-27T13:12:02.785Z,21.27
2017-09-27T13:13:11.338Z,21.25
2017-09-27T13:14:20.219Z,21.21
2017-09-27T13:15:29.096Z,21.22
2017-09-27T13:16:37.644Z,21.23
2017-09-27T13:17:46.836Z,21.28
2017-09-27T13:18:55.711Z,21.33
2017-09-27T13:20:04.263Z,21.28
2017-09-27T13:21:13.136Z,21.28
2017-09-27T13:22:21.684Z,21.33
2017-09-27T13:23:30.555Z,21.25
2017-09-27T13:24:39.806Z,21.37
2017-09-27T13:25:48.682Z,21.33
2017-09-27T13:26:57.232Z,21.33
2017-09-27T13:28:06.104Z,21.36
2017-09-27T13:29:14.651Z,21.34
2017-09-27T13:30:23.529Z,21.36
2017-09-27T13:31:32.405Z,21.34
2017-09-27T13:32:40.952Z,21.41
2017-09-27T13:33:49.826Z,21.38
2017-09-27T13:34:58.699Z,21.4
2017-09-27T13:36:07.575Z,21.49
2017-09-27T13:37:16.129Z,21.4
2017-09-27T13:38:25.008Z,21.4
2017-09-27T13:39:33.558Z,21.41
2017-09-27T13:40:42.118Z,21.51
2017-09-27T13:41:51.315Z,21.52
2017-09-27T13:43:00.218Z,21.48
2017-09-27T13:44:09.091Z,21.51
2017-09-27T13:45:17.959Z,21.45
2017-09-27T13:46:26.511Z,21.45
2017-09-27T13:47:35.382Z,21.52
2017-09-27T13:48:44.641Z,21.45
2017-09-27T13:49:54.996Z,21.48
2017-09-27T13:51:03.547Z,21.52
2017-09-27T13:52:12.097Z,21.53
2017-09-27T13:53:21.421Z,21.61
2017-09-27T13:54:29.992Z,21.56
2017-09-27T13:55:38.544Z,21.52
2017-09-27T13:56:47.413Z,21.49
2017-09-27T13:57:56.607Z,21.66
2017-09-27T13:59:06.132Z,21.64
2017-09-27T14:00:15.005Z,21.62
2017-09-27T14:01:24.209Z,21.59
2017-09-27T14:02:32.759Z,21.68
2017-09-27T14:03:41.630Z,21.64
2017-09-27T14:04:50.503Z,21.7
2017-09-27T14:05:59.375Z,21.68
2017-09-27T14:07:08.242Z,21.66
2017-09-27T14:08:17.438Z,21.64
2017-09-27T14:09:26.960Z,21.59
2017-09-27T14:10:36.483Z,21.67
2017-09-27T14:11:45.027Z,21.71
2017-09-27T14:12:54.230Z,21.76
2017-09-27T14:14:02.783Z,21.76
2017-09-27T14:15:11.655Z,21.8
2017-09-27T14:16:20.206Z,21.82
2017-09-27T14:17:28.756Z,21.78
2017-09-27T14:18:37.309Z,21.77
2017-09-27T14:19:45.860Z,21.77
2017-09-27T14:20:54.742Z,21.76
2017-09-27T14:22:03.296Z,21.74
2017-09-27T14:23:12.205Z,21.71
2017-09-27T14:24:21.042Z,21.77
2017-09-27T14:25:29.592Z,21.76
2017-09-27T14:26:38.141Z,21.8
2017-09-27T14:27:46.698Z,21.78
2017-09-27T14:28:56.148Z,21.78
2017-09-27T14:30:05.019Z,21.74
2017-09-27T14:31:13.568Z,21.74
2017-09-27T14:32:23.080Z,21.74
2017-09-27T14:33:31.627Z,21.73
2017-09-27T14:34:40.498Z,21.66
2017-09-27T14:35:49.368Z,21.76
2017-09-27T14:36:58.241Z,21.7
2017-09-27T14:38:06.789Z,21.62
2017-09-27T14:39:15.987Z,21.7
2017-09-27T14:40:24.537Z,21.64
2017-09-27T14:41:33.084Z,21.66
2017-09-27T14:42:41.955Z,21.59
2017-09-27T14:43:50.503Z,21.58
2017-09-27T14:44:59.379Z,21.62
2017-09-27T14:46:08.578Z,21.66
2017-09-27T14:47:17.126Z,21.52
2017-09-27T14:48:25.993Z,21.62
2017-09-27T14:49:34.869Z,21.64